sensor_id;sensor_type;location;lat;lon;timestamp;temperature;humidity
26378;DHT22;14078;50.974;6.786;2023-02-15T00:01:17;2.70;99.90
26378;DHT22;14078;50.974;6.786;2023-02-15T00:03:44;2.70;99.90
26378;DHT22;14078;50.974;6.786;2023-02-15T00:06:12;2.70;99.90
26378;DHT22;14078;50.974;6.786;2023-02-15T00:08:38;2.70;99.90
26378;DHT22;14078;50.974;6.786;2023-02-15T00:11:05;2.70;99.90
26378;DHT22;14078;50.974;6.786;2023-02-15T00:13:32;2.60;99.90
26378;DHT22;14078;50.974;6.786;2023-02-15T00:16:01;2.70;99.90
26378;DHT22;14078;50.974;6.786;2023-02-15T00:18:28;2.60;99.90
26378;DHT22;14078;50.974;6.786;2023-02-15T00:20:54;2.60;99.90
26378;DHT22;14078;50.974;6.786;2023-02-15T00:23:22;2.60;99.90
26378;DHT22;14078;50.974;6.786;2023-02-15T00:25:48;2.50;99.90
26378;DHT22;14078;50.974;6.786;2023-02-15T00:28:15;2.50;99.90
26378;DHT22;14078;50.974;6.786;2023-02-15T00:30:42;2.50;99.90
26378;DHT22;14078;50.974;6.786;2023-02-15T00:33:08;2.50;99.90
26378;DHT22;14078;50.974;6.786;2023-02-15T00:35:35;2.50;99.90
26378;DHT22;14078;50.974;6.786;2023-02-15T00:38:01;2.50;99.90
26378;DHT22;14078;50.974;6.786;2023-02-15T00:40:29;2.50;99.90
26378;DHT22;14078;50.974;6.786;2023-02-15T00:42:56;2.50;99.90
26378;DHT22;14078;50.974;6.786;2023-02-15T00:45:23;2.40;99.90
26378;DHT22;14078;50.974;6.786;2023-02-15T00:47:50;2.40;99.90
26378;DHT22;14078;50.974;6.786;2023-02-15T00:50:16;2.40;99.90
26378;DHT22;14078;50.974;6.786;2023-02-15T00:52:43;2.40;99.90
26378;DHT22;14078;50.974;6.786;2023-02-15T00:55:09;2.40;99.90
26378;DHT22;14078;50.974;6.786;2023-02-15T00:57:37;2.40;99.90
26378;DHT22;14078;50.974;6.786;2023-02-15T01:00:04;2.40;99.90
26378;DHT22;14078;50.974;6.786;2023-02-15T01:02:31;2.30;99.90
26378;DHT22;14078;50.974;6.786;2023-02-15T01:04:58;2.30;99.90
26378;DHT22;14078;50.974;6.786;2023-02-15T01:07:24;2.20;99.90
26378;DHT22;14078;50.974;6.786;2023-02-15T01:09:51;2.30;99.90
26378;DHT22;14078;50.974;6.786;2023-02-15T01:12:17;2.30;99.90
26378;DHT22;14078;50.974;6.786;2023-02-15T01:14:45;2.30;99.90
26378;DHT22;14078;50.974;6.786;2023-02-15T01:17:11;2.20;99.90
26378;DHT22;14078;50.974;6.786;2023-02-15T01:19:38;2.20;99.90
26378;DHT22;14078;50.974;6.786;2023-02-15T01:22:04;2.20;99.90
26378;DHT22;14078;50.974;6.786;2023-02-15T01:24:31;2.20;99.90
26378;DHT22;14078;50.974;6.786;2023-02-15T01:26:58;2.20;99.90
26378;DHT22;14078;50.974;6.786;2023-02-15T01:29:24;2.20;99.90
26378;DHT22;14078;50.974;6.786;2023-02-15T01:31:52;2.20;99.90
26378;DHT22;14078;50.974;6.786;2023-02-15T01:34:19;2.20;99.90
26378;DHT22;14078;50.974;6.786;2023-02-15T01:36:45;2.10;99.90
26378;DHT22;14078;50.974;6.786;2023-02-15T01:39:12;2.10;99.90
26378;DHT22;14078;50.974;6.786;2023-02-15T01:41:38;2.10;99.90
26378;DHT22;14078;50.974;6.786;2023-02-15T01:46:48;2.20;99.90
26378;DHT22;14078;50.974;6.786;2023-02-15T01:49:19;2.20;99.90
26378;DHT22;14078;50.974;6.786;2023-02-15T01:51:47;2.20;99.90
26378;DHT22;14078;50.974;6.786;2023-02-15T01:54:15;2.20;99.90
26378;DHT22;14078;50.974;6.786;2023-02-15T01:56:43;2.20;99.90
26378;DHT22;14078;50.974;6.786;2023-02-15T01:59:11;2.10;99.90
26378;DHT22;14078;50.974;6.786;2023-02-15T02:01:39;2.10;99.90
26378;DHT22;14078;50.974;6.786;2023-02-15T02:04:08;2.10;99.90
26378;DHT22;14078;50.974;6.786;2023-02-15T02:06:37;2.10;99.90
26378;DHT22;14078;50.974;6.786;2023-02-15T02:09:04;2.10;99.90
26378;DHT22;14078;50.974;6.786;2023-02-15T02:11:30;2.00;99.90
26378;DHT22;14078;50.974;6.786;2023-02-15T02:13:57;2.00;99.90
26378;DHT22;14078;50.974;6.786;2023-02-15T02:16:25;2.00;99.90
26378;DHT22;14078;50.974;6.786;2023-02-15T02:18:57;1.90;99.90
26378;DHT22;14078;50.974;6.786;2023-02-15T02:24:13;1.90;99.90
26378;DHT22;14078;50.974;6.786;2023-02-15T02:26:48;1.90;99.90
26378;DHT22;14078;50.974;6.786;2023-02-15T02:29:32;1.80;99.90
26378;DHT22;14078;50.974;6.786;2023-02-15T02:32:07;1.90;99.90
26378;DHT22;14078;50.974;6.786;2023-02-15T02:34:38;1.90;99.90
26378;DHT22;14078;50.974;6.786;2023-02-15T02:37:09;1.90;99.90
26378;DHT22;14078;50.974;6.786;2023-02-15T02:39:39;2.00;99.90
26378;DHT22;14078;50.974;6.786;2023-02-15T02:42:10;1.90;99.90
26378;DHT22;14078;50.974;6.786;2023-02-15T02:44:40;1.90;99.90
26378;DHT22;14078;50.974;6.786;2023-02-15T02:47:09;1.80;99.90
26378;DHT22;14078;50.974;6.786;2023-02-15T02:49:38;1.80;99.90
26378;DHT22;14078;50.974;6.786;2023-02-15T02:52:06;1.80;99.90
26378;DHT22;14078;50.974;6.786;2023-02-15T02:54:34;1.80;99.90
26378;DHT22;14078;50.974;6.786;2023-02-15T02:57:02;1.70;99.90
26378;DHT22;14078;50.974;6.786;2023-02-15T02:59:30;1.80;99.90
26378;DHT22;14078;50.974;6.786;2023-02-15T03:01:59;1.70;99.90
26378;DHT22;14078;50.974;6.786;2023-02-15T03:04:27;1.70;99.90
26378;DHT22;14078;50.974;6.786;2023-02-15T03:06:58;1.70;99.90
26378;DHT22;14078;50.974;6.786;2023-02-15T03:09:27;1.70;99.90
26378;DHT22;14078;50.974;6.786;2023-02-15T03:12:00;1.70;99.90
26378;DHT22;14078;50.974;6.786;2023-02-15T03:14:27;1.70;99.90
26378;DHT22;14078;50.974;6.786;2023-02-15T03:16:54;1.70;99.90
26378;DHT22;14078;50.974;6.786;2023-02-15T03:19:22;1.70;99.90
26378;DHT22;14078;50.974;6.786;2023-02-15T03:21:50;1.70;99.90
26378;DHT22;14078;50.974;6.786;2023-02-15T03:24:31;1.60;99.90
26378;DHT22;14078;50.974;6.786;2023-02-15T03:26:58;1.60;99.90
26378;DHT22;14078;50.974;6.786;2023-02-15T03:29:26;1.60;99.90
26378;DHT22;14078;50.974;6.786;2023-02-15T03:31:54;1.60;99.90
26378;DHT22;14078;50.974;6.786;2023-02-15T03:34:22;1.60;99.90
26378;DHT22;14078;50.974;6.786;2023-02-15T03:36:50;1.60;99.90
26378;DHT22;14078;50.974;6.786;2023-02-15T03:39:20;1.50;99.90
26378;DHT22;14078;50.974;6.786;2023-02-15T03:41:50;1.50;99.90
26378;DHT22;14078;50.974;6.786;2023-02-15T03:44:19;1.50;99.90
26378;DHT22;14078;50.974;6.786;2023-02-15T03:46:50;1.50;99.90
26378;DHT22;14078;50.974;6.786;2023-02-15T03:49:20;1.50;99.90
26378;DHT22;14078;50.974;6.786;2023-02-15T03:51:48;1.50;99.90
26378;DHT22;14078;50.974;6.786;2023-02-15T03:54:17;1.60;99.90
26378;DHT22;14078;50.974;6.786;2023-02-15T03:57:06;1.50;99.90
26378;DHT22;14078;50.974;6.786;2023-02-15T03:59:51;1.50;99.90
26378;DHT22;14078;50.974;6.786;2023-02-15T04:02:46;1.50;99.90
26378;DHT22;14078;50.974;6.786;2023-02-15T04:05:14;1.50;99.90
26378;DHT22;14078;50.974;6.786;2023-02-15T04:07:41;1.40;99.90
26378;DHT22;14078;50.974;6.786;2023-02-15T04:10:07;1.50;99.90
26378;DHT22;14078;50.974;6.786;2023-02-15T04:12:53;1.50;99.90
26378;DHT22;14078;50.974;6.786;2023-02-15T04:15:19;1.40;99.90
26378;DHT22;14078;50.974;6.786;2023-02-15T04:18:05;1.40;99.90
26378;DHT22;14078;50.974;6.786;2023-02-15T04:20:32;1.40;99.90
26378;DHT22;14078;50.974;6.786;2023-02-15T04:23:16;1.40;99.90
26378;DHT22;14078;50.974;6.786;2023-02-15T04:26:02;1.30;99.90
26378;DHT22;14078;50.974;6.786;2023-02-15T04:28:30;1.30;99.90
26378;DHT22;14078;50.974;6.786;2023-02-15T04:30:57;1.30;99.90
26378;DHT22;14078;50.974;6.786;2023-02-15T04:33:23;1.30;99.90
26378;DHT22;14078;50.974;6.786;2023-02-15T04:35:50;1.30;99.90
26378;DHT22;14078;50.974;6.786;2023-02-15T04:38:16;1.30;99.90
26378;DHT22;14078;50.974;6.786;2023-02-15T04:40:43;1.30;99.90
26378;DHT22;14078;50.974;6.786;2023-02-15T04:43:09;1.30;99.90
26378;DHT22;14078;50.974;6.786;2023-02-15T04:45:37;1.30;99.90
26378;DHT22;14078;50.974;6.786;2023-02-15T04:48:04;1.30;99.90
26378;DHT22;14078;50.974;6.786;2023-02-15T04:50:30;1.20;99.90
26378;DHT22;14078;50.974;6.786;2023-02-15T04:52:57;1.20;99.90
26378;DHT22;14078;50.974;6.786;2023-02-15T04:55:23;1.20;99.90
26378;DHT22;14078;50.974;6.786;2023-02-15T04:57:50;1.30;99.90
26378;DHT22;14078;50.974;6.786;2023-02-15T05:00:16;1.30;99.90
26378;DHT22;14078;50.974;6.786;2023-02-15T05:02:44;1.30;99.90
26378;DHT22;14078;50.974;6.786;2023-02-15T05:05:11;1.20;99.90
26378;DHT22;14078;50.974;6.786;2023-02-15T05:07:40;1.20;99.90
26378;DHT22;14078;50.974;6.786;2023-02-15T05:10:07;1.30;99.90
26378;DHT22;14078;50.974;6.786;2023-02-15T05:12:33;1.30;99.90
26378;DHT22;14078;50.974;6.786;2023-02-15T05:15:00;1.20;99.90
26378;DHT22;14078;50.974;6.786;2023-02-15T05:17:26;1.20;99.90
26378;DHT22;14078;50.974;6.786;2023-02-15T05:19:54;1.20;99.90
26378;DHT22;14078;50.974;6.786;2023-02-15T05:22:21;1.30;99.90
26378;DHT22;14078;50.974;6.786;2023-02-15T05:24:47;1.20;99.90
26378;DHT22;14078;50.974;6.786;2023-02-15T05:27:46;1.20;99.90
26378;DHT22;14078;50.974;6.786;2023-02-15T05:30:30;1.20;99.90
26378;DHT22;14078;50.974;6.786;2023-02-15T05:32:56;1.10;99.90
26378;DHT22;14078;50.974;6.786;2023-02-15T05:35:24;1.10;99.90
26378;DHT22;14078;50.974;6.786;2023-02-15T05:37:50;1.10;99.90
26378;DHT22;14078;50.974;6.786;2023-02-15T05:40:17;1.10;99.90
26378;DHT22;14078;50.974;6.786;2023-02-15T05:42:44;1.10;99.90
26378;DHT22;14078;50.974;6.786;2023-02-15T05:45:10;1.10;99.90
26378;DHT22;14078;50.974;6.786;2023-02-15T05:47:37;1.10;99.90
26378;DHT22;14078;50.974;6.786;2023-02-15T05:50:04;1.20;99.90
26378;DHT22;14078;50.974;6.786;2023-02-15T05:52:32;1.20;99.90
26378;DHT22;14078;50.974;6.786;2023-02-15T05:54:59;1.20;99.90
26378;DHT22;14078;50.974;6.786;2023-02-15T05:57:27;1.20;99.90
26378;DHT22;14078;50.974;6.786;2023-02-15T05:59:54;1.10;99.90
26378;DHT22;14078;50.974;6.786;2023-02-15T06:02:20;1.10;99.90
26378;DHT22;14078;50.974;6.786;2023-02-15T06:04:47;1.20;99.90
26378;DHT22;14078;50.974;6.786;2023-02-15T06:07:14;1.10;99.90
26378;DHT22;14078;50.974;6.786;2023-02-15T06:09:41;1.20;99.90
26378;DHT22;14078;50.974;6.786;2023-02-15T06:12:08;1.10;99.90
26378;DHT22;14078;50.974;6.786;2023-02-15T06:14:35;1.10;99.90
26378;DHT22;14078;50.974;6.786;2023-02-15T06:17:01;1.10;99.90
26378;DHT22;14078;50.974;6.786;2023-02-15T06:19:28;1.10;99.90
26378;DHT22;14078;50.974;6.786;2023-02-15T06:21:54;1.10;99.90
26378;DHT22;14078;50.974;6.786;2023-02-15T06:24:21;1.10;99.90
26378;DHT22;14078;50.974;6.786;2023-02-15T06:26:49;1.10;99.90
26378;DHT22;14078;50.974;6.786;2023-02-15T06:29:15;1.10;99.90
26378;DHT22;14078;50.974;6.786;2023-02-15T06:31:42;1.20;99.90
26378;DHT22;14078;50.974;6.786;2023-02-15T06:34:08;1.20;99.90
26378;DHT22;14078;50.974;6.786;2023-02-15T06:36:35;1.20;99.90
26378;DHT22;14078;50.974;6.786;2023-02-15T06:39:02;1.10;99.90
26378;DHT22;14078;50.974;6.786;2023-02-15T06:41:29;1.20;99.90
26378;DHT22;14078;50.974;6.786;2023-02-15T06:43:57;1.10;99.90
26378;DHT22;14078;50.974;6.786;2023-02-15T06:46:23;1.20;99.90
26378;DHT22;14078;50.974;6.786;2023-02-15T06:48:50;1.10;99.90
26378;DHT22;14078;50.974;6.786;2023-02-15T06:51:16;1.10;99.90
26378;DHT22;14078;50.974;6.786;2023-02-15T06:53:43;1.10;99.90
26378;DHT22;14078;50.974;6.786;2023-02-15T06:56:10;1.10;99.90
26378;DHT22;14078;50.974;6.786;2023-02-15T06:58:37;1.10;99.90
26378;DHT22;14078;50.974;6.786;2023-02-15T07:01:05;1.10;99.90
26378;DHT22;14078;50.974;6.786;2023-02-15T07:03:32;1.10;99.90
26378;DHT22;14078;50.974;6.786;2023-02-15T07:05:59;1.10;99.90
26378;DHT22;14078;50.974;6.786;2023-02-15T07:08:26;1.20;99.90
26378;DHT22;14078;50.974;6.786;2023-02-15T07:10:54;1.20;99.90
26378;DHT22;14078;50.974;6.786;2023-02-15T07:13:41;1.10;99.90
26378;DHT22;14078;50.974;6.786;2023-02-15T07:16:09;1.20;99.90
26378;DHT22;14078;50.974;6.786;2023-02-15T07:18:36;1.20;99.90
26378;DHT22;14078;50.974;6.786;2023-02-15T07:21:02;1.30;99.90
26378;DHT22;14078;50.974;6.786;2023-02-15T07:23:29;1.30;99.90
26378;DHT22;14078;50.974;6.786;2023-02-15T07:25:56;1.30;99.90
26378;DHT22;14078;50.974;6.786;2023-02-15T07:28:22;1.30;99.90
26378;DHT22;14078;50.974;6.786;2023-02-15T07:30:49;1.40;99.90
26378;DHT22;14078;50.974;6.786;2023-02-15T07:33:17;1.40;99.90
26378;DHT22;14078;50.974;6.786;2023-02-15T07:35:50;1.40;99.90
26378;DHT22;14078;50.974;6.786;2023-02-15T07:38:17;1.40;99.90
26378;DHT22;14078;50.974;6.786;2023-02-15T07:40:44;1.50;99.90
26378;DHT22;14078;50.974;6.786;2023-02-15T07:43:11;1.50;99.90
26378;DHT22;14078;50.974;6.786;2023-02-15T07:45:37;1.60;99.90
26378;DHT22;14078;50.974;6.786;2023-02-15T07:48:04;1.60;99.90
26378;DHT22;14078;50.974;6.786;2023-02-15T07:50:32;1.70;99.90
26378;DHT22;14078;50.974;6.786;2023-02-15T07:53:00;1.70;99.90
26378;DHT22;14078;50.974;6.786;2023-02-15T07:55:27;1.80;99.90
26378;DHT22;14078;50.974;6.786;2023-02-15T07:57:54;1.80;99.90
26378;DHT22;14078;50.974;6.786;2023-02-15T08:00:21;1.90;99.90
26378;DHT22;14078;50.974;6.786;2023-02-15T08:02:50;2.00;99.90
26378;DHT22;14078;50.974;6.786;2023-02-15T08:05:38;2.00;99.90
26378;DHT22;14078;50.974;6.786;2023-02-15T08:08:05;2.10;99.90
26378;DHT22;14078;50.974;6.786;2023-02-15T08:10:32;2.10;99.90
26378;DHT22;14078;50.974;6.786;2023-02-15T08:13:12;2.20;99.90
26378;DHT22;14078;50.974;6.786;2023-02-15T08:15:39;2.20;99.90
26378;DHT22;14078;50.974;6.786;2023-02-15T08:18:05;2.20;99.90
26378;DHT22;14078;50.974;6.786;2023-02-15T08:20:32;2.30;99.90
26378;DHT22;14078;50.974;6.786;2023-02-15T08:23:00;2.40;99.90
26378;DHT22;14078;50.974;6.786;2023-02-15T08:25:26;2.40;99.90
26378;DHT22;14078;50.974;6.786;2023-02-15T08:27:53;2.40;99.90
26378;DHT22;14078;50.974;6.786;2023-02-15T08:30:19;2.50;99.90
26378;DHT22;14078;50.974;6.786;2023-02-15T08:32:46;2.50;99.90
26378;DHT22;14078;50.974;6.786;2023-02-15T08:35:12;2.60;99.90
26378;DHT22;14078;50.974;6.786;2023-02-15T08:37:39;2.60;99.90
26378;DHT22;14078;50.974;6.786;2023-02-15T08:40:07;2.70;99.90
26378;DHT22;14078;50.974;6.786;2023-02-15T08:42:34;2.80;99.90
26378;DHT22;14078;50.974;6.786;2023-02-15T08:45:01;2.70;99.90
26378;DHT22;14078;50.974;6.786;2023-02-15T08:47:27;2.80;99.90
26378;DHT22;14078;50.974;6.786;2023-02-15T08:49:54;2.90;99.90
26378;DHT22;14078;50.974;6.786;2023-02-15T08:52:21;3.00;99.90
26378;DHT22;14078;50.974;6.786;2023-02-15T08:54:47;3.00;99.90
26378;DHT22;14078;50.974;6.786;2023-02-15T08:57:15;3.10;99.90
26378;DHT22;14078;50.974;6.786;2023-02-15T08:59:41;3.20;99.90
26378;DHT22;14078;50.974;6.786;2023-02-15T09:02:09;3.20;99.90
26378;DHT22;14078;50.974;6.786;2023-02-15T09:04:35;3.30;99.90
26378;DHT22;14078;50.974;6.786;2023-02-15T09:07:02;3.40;99.90
26378;DHT22;14078;50.974;6.786;2023-02-15T09:09:29;3.50;99.90
26378;DHT22;14078;50.974;6.786;2023-02-15T09:11:57;3.50;99.90
26378;DHT22;14078;50.974;6.786;2023-02-15T09:14:25;3.60;99.90
26378;DHT22;14078;50.974;6.786;2023-02-15T09:16:52;3.60;99.90
26378;DHT22;14078;50.974;6.786;2023-02-15T09:19:19;3.70;99.90
26378;DHT22;14078;50.974;6.786;2023-02-15T09:21:46;3.80;99.90
26378;DHT22;14078;50.974;6.786;2023-02-15T09:24:13;3.90;99.90
26378;DHT22;14078;50.974;6.786;2023-02-15T09:26:41;4.00;99.90
26378;DHT22;14078;50.974;6.786;2023-02-15T09:29:08;4.10;99.90
26378;DHT22;14078;50.974;6.786;2023-02-15T09:31:38;4.20;99.90
26378;DHT22;14078;50.974;6.786;2023-02-15T09:34:06;4.30;99.90
26378;DHT22;14078;50.974;6.786;2023-02-15T09:36:33;4.40;99.90
26378;DHT22;14078;50.974;6.786;2023-02-15T09:39:01;4.50;99.90
26378;DHT22;14078;50.974;6.786;2023-02-15T09:41:41;4.60;99.90
26378;DHT22;14078;50.974;6.786;2023-02-15T09:44:14;4.70;99.90
26378;DHT22;14078;50.974;6.786;2023-02-15T09:46:51;4.70;99.90
26378;DHT22;14078;50.974;6.786;2023-02-15T09:49:22;4.80;99.90
26378;DHT22;14078;50.974;6.786;2023-02-15T09:51:57;4.80;99.90
26378;DHT22;14078;50.974;6.786;2023-02-15T09:54:39;4.80;99.90
26378;DHT22;14078;50.974;6.786;2023-02-15T09:57:10;4.90;99.90
26378;DHT22;14078;50.974;6.786;2023-02-15T09:59:43;5.00;99.90
26378;DHT22;14078;50.974;6.786;2023-02-15T10:02:20;5.00;99.90
26378;DHT22;14078;50.974;6.786;2023-02-15T10:04:53;5.10;99.90
26378;DHT22;14078;50.974;6.786;2023-02-15T10:07:25;5.20;99.90
26378;DHT22;14078;50.974;6.786;2023-02-15T10:10:01;5.40;99.90
26378;DHT22;14078;50.974;6.786;2023-02-15T10:12:35;5.40;99.90
26378;DHT22;14078;50.974;6.786;2023-02-15T10:15:07;5.50;99.90
26378;DHT22;14078;50.974;6.786;2023-02-15T10:17:43;5.50;99.90
26378;DHT22;14078;50.974;6.786;2023-02-15T10:20:13;5.50;99.90
26378;DHT22;14078;50.974;6.786;2023-02-15T10:22:47;5.60;99.90
26378;DHT22;14078;50.974;6.786;2023-02-15T10:25:27;5.80;99.90
26378;DHT22;14078;50.974;6.786;2023-02-15T10:27:56;5.80;99.90
26378;DHT22;14078;50.974;6.786;2023-02-15T10:30:25;6.00;99.90
26378;DHT22;14078;50.974;6.786;2023-02-15T10:32:57;6.00;99.90
26378;DHT22;14078;50.974;6.786;2023-02-15T10:35:26;6.00;99.90
26378;DHT22;14078;50.974;6.786;2023-02-15T10:38:01;6.20;99.90
26378;DHT22;14078;50.974;6.786;2023-02-15T10:40:32;6.20;99.90
26378;DHT22;14078;50.974;6.786;2023-02-15T10:43:06;6.20;99.90
26378;DHT22;14078;50.974;6.786;2023-02-15T10:45:38;6.40;99.90
26378;DHT22;14078;50.974;6.786;2023-02-15T10:48:16;6.40;99.90
26378;DHT22;14078;50.974;6.786;2023-02-15T10:50:48;6.50;99.90
26378;DHT22;14078;50.974;6.786;2023-02-15T10:56:08;6.70;99.90
26378;DHT22;14078;50.974;6.786;2023-02-15T10:58:44;6.70;99.90
26378;DHT22;14078;50.974;6.786;2023-02-15T11:01:18;6.80;99.90
26378;DHT22;14078;50.974;6.786;2023-02-15T11:03:51;6.80;99.90
26378;DHT22;14078;50.974;6.786;2023-02-15T11:06:21;6.80;99.90
26378;DHT22;14078;50.974;6.786;2023-02-15T11:08:49;7.00;99.90
26378;DHT22;14078;50.974;6.786;2023-02-15T11:11:19;7.00;99.90
26378;DHT22;14078;50.974;6.786;2023-02-15T11:13:48;7.10;99.90
26378;DHT22;14078;50.974;6.786;2023-02-15T11:16:17;7.10;99.90
26378;DHT22;14078;50.974;6.786;2023-02-15T11:18:47;7.20;99.90
26378;DHT22;14078;50.974;6.786;2023-02-15T11:21:19;7.30;99.90
26378;DHT22;14078;50.974;6.786;2023-02-15T11:23:47;7.30;99.90
26378;DHT22;14078;50.974;6.786;2023-02-15T11:26:14;7.40;99.90
26378;DHT22;14078;50.974;6.786;2023-02-15T11:28:43;7.40;99.90
26378;DHT22;14078;50.974;6.786;2023-02-15T11:31:12;7.50;99.90
26378;DHT22;14078;50.974;6.786;2023-02-15T11:33:41;7.50;99.90
26378;DHT22;14078;50.974;6.786;2023-02-15T11:36:11;7.60;99.90
26378;DHT22;14078;50.974;6.786;2023-02-15T11:38:40;7.60;99.90
26378;DHT22;14078;50.974;6.786;2023-02-15T11:41:09;7.70;99.90
26378;DHT22;14078;50.974;6.786;2023-02-15T11:43:37;7.80;99.90
26378;DHT22;14078;50.974;6.786;2023-02-15T11:46:06;7.90;99.90
26378;DHT22;14078;50.974;6.786;2023-02-15T11:48:33;8.00;99.90
26378;DHT22;14078;50.974;6.786;2023-02-15T11:51:00;8.10;96.60
26378;DHT22;14078;50.974;6.786;2023-02-15T11:53:28;8.10;99.90
26378;DHT22;14078;50.974;6.786;2023-02-15T11:55:58;8.20;99.90
26378;DHT22;14078;50.974;6.786;2023-02-15T11:58:28;8.30;99.90
26378;DHT22;14078;50.974;6.786;2023-02-15T12:00:56;8.40;99.90
26378;DHT22;14078;50.974;6.786;2023-02-15T12:03:24;8.50;99.90
26378;DHT22;14078;50.974;6.786;2023-02-15T12:05:54;8.50;99.90
26378;DHT22;14078;50.974;6.786;2023-02-15T12:08:22;8.50;98.50
26378;DHT22;14078;50.974;6.786;2023-02-15T12:10:56;8.60;99.90
26378;DHT22;14078;50.974;6.786;2023-02-15T12:13:24;8.70;99.90
26378;DHT22;14078;50.974;6.786;2023-02-15T12:15:52;8.70;1.00
26378;DHT22;14078;50.974;6.786;2023-02-15T12:18:21;8.70;1.00
26378;DHT22;14078;50.974;6.786;2023-02-15T12:20:50;8.80;1.00
26378;DHT22;14078;50.974;6.786;2023-02-15T12:23:17;8.90;1.00
26378;DHT22;14078;50.974;6.786;2023-02-15T12:25:48;8.90;1.00
26378;DHT22;14078;50.974;6.786;2023-02-15T12:28:22;8.90;1.00
26378;DHT22;14078;50.974;6.786;2023-02-15T12:30:51;9.00;1.00
26378;DHT22;14078;50.974;6.786;2023-02-15T12:33:21;9.00;99.90
26378;DHT22;14078;50.974;6.786;2023-02-15T12:35:54;9.10;99.90
26378;DHT22;14078;50.974;6.786;2023-02-15T12:38:21;9.10;1.00
26378;DHT22;14078;50.974;6.786;2023-02-15T12:40:56;9.10;99.90
26378;DHT22;14078;50.974;6.786;2023-02-15T12:43:24;9.20;99.90
26378;DHT22;14078;50.974;6.786;2023-02-15T12:45:52;9.30;1.00
26378;DHT22;14078;50.974;6.786;2023-02-15T12:48:19;9.40;99.90
26378;DHT22;14078;50.974;6.786;2023-02-15T12:50:46;9.40;99.90
26378;DHT22;14078;50.974;6.786;2023-02-15T12:53:14;9.50;99.90
26378;DHT22;14078;50.974;6.786;2023-02-15T12:55:48;9.60;99.90
26378;DHT22;14078;50.974;6.786;2023-02-15T12:58:15;9.60;99.90
26378;DHT22;14078;50.974;6.786;2023-02-15T13:00:42;9.70;1.00
26378;DHT22;14078;50.974;6.786;2023-02-15T13:03:16;9.70;1.00
26378;DHT22;14078;50.974;6.786;2023-02-15T13:05:44;9.70;99.90
26378;DHT22;14078;50.974;6.786;2023-02-15T13:08:12;9.70;90.60
26378;DHT22;14078;50.974;6.786;2023-02-15T13:10:40;9.80;99.90
26378;DHT22;14078;50.974;6.786;2023-02-15T13:13:09;9.80;1.00
26378;DHT22;14078;50.974;6.786;2023-02-15T13:15:36;9.80;99.90
26378;DHT22;14078;50.974;6.786;2023-02-15T13:18:04;9.90;77.30
26378;DHT22;14078;50.974;6.786;2023-02-15T13:20:32;9.90;1.00
26378;DHT22;14078;50.974;6.786;2023-02-15T13:23:02;10.00;1.00
26378;DHT22;14078;50.974;6.786;2023-02-15T13:25:31;10.10;1.00
26378;DHT22;14078;50.974;6.786;2023-02-15T13:28:00;10.10;1.00
26378;DHT22;14078;50.974;6.786;2023-02-15T13:30:28;10.10;1.00
26378;DHT22;14078;50.974;6.786;2023-02-15T13:32:58;10.10;1.00
26378;DHT22;14078;50.974;6.786;2023-02-15T13:35:27;10.10;99.90
26378;DHT22;14078;50.974;6.786;2023-02-15T13:38:05;10.20;99.90
26378;DHT22;14078;50.974;6.786;2023-02-15T13:40:34;10.20;99.90
26378;DHT22;14078;50.974;6.786;2023-02-15T13:43:05;10.20;99.90
26378;DHT22;14078;50.974;6.786;2023-02-15T13:45:39;10.20;99.90
26378;DHT22;14078;50.974;6.786;2023-02-15T13:48:12;10.30;1.00
26378;DHT22;14078;50.974;6.786;2023-02-15T13:50:51;10.30;1.00
26378;DHT22;14078;50.974;6.786;2023-02-15T13:53:24;10.30;1.00
26378;DHT22;14078;50.974;6.786;2023-02-15T13:55:55;10.30;99.90
26378;DHT22;14078;50.974;6.786;2023-02-15T13:58:36;10.40;99.90
26378;DHT22;14078;50.974;6.786;2023-02-15T14:01:08;10.40;1.00
26378;DHT22;14078;50.974;6.786;2023-02-15T14:03:51;10.50;57.30
26378;DHT22;14078;50.974;6.786;2023-02-15T14:06:36;10.60;99.90
26378;DHT22;14078;50.974;6.786;2023-02-15T14:09:11;10.60;1.00
26378;DHT22;14078;50.974;6.786;2023-02-15T14:11:42;10.60;81.40
26378;DHT22;14078;50.974;6.786;2023-02-15T14:14:17;10.60;1.00
26378;DHT22;14078;50.974;6.786;2023-02-15T14:16:52;10.60;99.90
26378;DHT22;14078;50.974;6.786;2023-02-15T14:19:21;10.60;99.90
26378;DHT22;14078;50.974;6.786;2023-02-15T14:21:52;10.70;99.90
26378;DHT22;14078;50.974;6.786;2023-02-15T14:24:24;10.60;99.90
26378;DHT22;14078;50.974;6.786;2023-02-15T14:26:53;10.60;99.90
26378;DHT22;14078;50.974;6.786;2023-02-15T14:29:25;10.60;1.00
26378;DHT22;14078;50.974;6.786;2023-02-15T14:31:55;10.50;99.90
26378;DHT22;14078;50.974;6.786;2023-02-15T14:34:23;10.60;1.00
26378;DHT22;14078;50.974;6.786;2023-02-15T14:36:51;10.60;1.00
26378;DHT22;14078;50.974;6.786;2023-02-15T14:39:22;10.50;50.20
26378;DHT22;14078;50.974;6.786;2023-02-15T14:42:11;10.50;99.90
26378;DHT22;14078;50.974;6.786;2023-02-15T14:44:42;10.50;99.90
26378;DHT22;14078;50.974;6.786;2023-02-15T14:47:12;10.50;1.00
26378;DHT22;14078;50.974;6.786;2023-02-15T14:49:42;10.50;99.90
26378;DHT22;14078;50.974;6.786;2023-02-15T14:52:10;10.50;1.00
26378;DHT22;14078;50.974;6.786;2023-02-15T14:54:53;10.50;99.90
26378;DHT22;14078;50.974;6.786;2023-02-15T14:57:23;10.50;1.00
26378;DHT22;14078;50.974;6.786;2023-02-15T14:59:52;10.40;1.00
26378;DHT22;14078;50.974;6.786;2023-02-15T15:02:21;10.40;99.90
26378;DHT22;14078;50.974;6.786;2023-02-15T15:04:53;10.50;1.00
26378;DHT22;14078;50.974;6.786;2023-02-15T15:07:22;10.50;99.90
26378;DHT22;14078;50.974;6.786;2023-02-15T15:09:57;10.50;99.90
26378;DHT22;14078;50.974;6.786;2023-02-15T15:12:38;10.50;1.00
26378;DHT22;14078;50.974;6.786;2023-02-15T15:15:05;10.40;1.00
26378;DHT22;14078;50.974;6.786;2023-02-15T15:20:36;10.40;99.90
26378;DHT22;14078;50.974;6.786;2023-02-15T15:25:48;10.40;1.00
26378;DHT22;14078;50.974;6.786;2023-02-15T15:31:07;10.30;6.60
26378;DHT22;14078;50.974;6.786;2023-02-15T15:36:31;10.20;99.90
26378;DHT22;14078;50.974;6.786;2023-02-15T15:39:05;10.10;99.90
26378;DHT22;14078;50.974;6.786;2023-02-15T15:41:40;10.10;1.00
26378;DHT22;14078;50.974;6.786;2023-02-15T15:44:26;10.00;99.90
26378;DHT22;14078;50.974;6.786;2023-02-15T15:47:01;10.00;99.90
26378;DHT22;14078;50.974;6.786;2023-02-15T15:49:34;9.90;1.00
26378;DHT22;14078;50.974;6.786;2023-02-15T15:52:03;9.70;61.40
26378;DHT22;14078;50.974;6.786;2023-02-15T15:54:34;9.70;1.00
26378;DHT22;14078;50.974;6.786;2023-02-15T15:57:04;9.60;99.60
26378;DHT22;14078;50.974;6.786;2023-02-15T15:59:33;9.60;99.90
26378;DHT22;14078;50.974;6.786;2023-02-15T16:02:04;9.60;1.00
26378;DHT22;14078;50.974;6.786;2023-02-15T16:04:32;9.60;99.90
26378;DHT22;14078;50.974;6.786;2023-02-15T16:07:13;9.50;99.90
26378;DHT22;14078;50.974;6.786;2023-02-15T16:09:39;9.50;1.00
26378;DHT22;14078;50.974;6.786;2023-02-15T16:12:10;9.40;99.90
26378;DHT22;14078;50.974;6.786;2023-02-15T16:14:40;9.30;1.00
26378;DHT22;14078;50.974;6.786;2023-02-15T16:17:13;9.20;99.90
26378;DHT22;14078;50.974;6.786;2023-02-15T16:19:42;9.20;99.90